Time;durP1;ratioP1;P1;durP2;ratioP2;P2;SDS_P1;SDS_P2;PMS_P1;PMS_P2;Temp;Humidity;BMP_temperature;BMP_pressure;BME280_temperature;BME280_humidity;BME280_pressure;Samples;Min_cycle;Max_cycle;Signal;HPM_P1;HPM_P2
2023/03/03 00:01:12;;;;;;;7.50;6.90;;;23.20;53.50;;;;;;4983603;28;20457;-78
2023/03/03 00:03:41;;;;;;;8.80;6.50;;;23.20;53.50;;;;;;4987207;28;20465;-78
2023/03/03 00:06:11;;;;;;;7.60;6.60;;;23.20;53.40;;;;;;4986232;28;20453;-78
2023/03/03 00:08:40;;;;;;;7.10;6.50;;;23.10;53.30;;;;;;4988446;28;20462;-78
2023/03/03 00:11:08;;;;;;;7.67;6.97;;;23.10;53.30;;;;;;4985398;28;20476;-78
2023/03/03 00:13:45;;;;;;;7.60;6.90;;;23.10;53.20;;;;;;4978051;28;20547;-77
2023/03/03 00:16:16;;;;;;;7.43;6.67;;;23.10;53.10;;;;;;4985141;28;20485;-78
2023/03/03 00:18:47;;;;;;;8.50;7.70;;;23.00;53.00;;;;;;4989763;28;20528;-78
2023/03/03 00:21:29;;;;;;;8.13;7.43;;;23.00;53.00;;;;;;4990594;28;20532;-78
2023/03/03 00:24:19;;;;;;;8.37;7.40;;;23.00;52.90;;;;;;4969956;28;20525;-78
2023/03/03 00:26:49;;;;;;;7.27;6.63;;;23.00;52.80;;;;;;4970093;28;20516;-78
2023/03/03 00:29:29;;;;;;;6.87;6.30;;;23.00;52.80;;;;;;4990296;28;20464;-78
2023/03/03 00:32:17;;;;;;;8.10;7.40;;;23.00;52.70;;;;;;4990014;28;21036;-78
2023/03/03 00:34:47;;;;;;;7.23;6.53;;;23.00;52.70;;;;;;4970580;28;20983;-78
2023/03/03 00:37:34;;;;;;;8.00;7.30;;;22.90;52.70;;;;;;4981027;28;20551;-78
2023/03/03 00:40:20;;;;;;;7.60;6.80;;;22.90;52.90;;;;;;4963332;28;20441;-78
2023/03/03 00:42:51;;;;;;;9.43;6.40;;;22.90;53.00;;;;;;4971521;28;20796;-78
2023/03/03 00:45:31;;;;;;;7.80;7.10;;;22.90;52.90;;;;;;4990472;28;20541;-78
2023/03/03 00:48:17;;;;;;;7.93;7.30;;;22.90;52.80;;;;;;4989901;28;20456;-78
2023/03/03 00:50:47;;;;;;;7.50;6.90;;;22.90;52.80;;;;;;4973133;28;20469;-78
2023/03/03 00:53:17;;;;;;;7.17;6.50;;;22.90;52.80;;;;;;4989170;28;20631;-78
2023/03/03 00:55:46;;;;;;;8.13;7.33;;;22.90;52.70;;;;;;4966343;28;20460;-78
2023/03/03 00:58:15;;;;;;;8.30;7.50;;;22.90;52.70;;;;;;4989425;28;20473;-78
2023/03/03 01:00:46;;;;;;;8.37;7.57;;;22.90;52.80;;;;;;4965015;28;20554;-78
2023/03/03 01:03:19;;;;;;;8.00;7.30;;;22.90;52.80;;;;;;4972425;28;20530;-78
2023/03/03 01:05:49;;;;;;;7.40;6.77;;;22.90;52.80;;;;;;4967814;28;20511;-79
2023/03/03 01:08:18;;;;;;;7.60;6.90;;;22.90;52.70;;;;;;4975110;28;20457;-78
2023/03/03 01:10:50;;;;;;;6.73;6.13;;;22.90;52.70;;;;;;4978934;28;20555;-78
2023/03/03 01:13:20;;;;;;;7.20;6.60;;;22.90;52.70;;;;;;4994815;28;20524;-78
2023/03/03 01:15:49;;;;;;;7.13;6.43;;;22.90;52.80;;;;;;4973957;28;20460;-78
2023/03/03 01:18:17;;;;;;;7.50;6.90;;;22.90;52.80;;;;;;4982854;28;20481;-78
2023/03/03 01:20:45;;;;;;;7.37;6.77;;;22.90;52.80;;;;;;4976759;28;20565;-78
2023/03/03 01:23:15;;;;;;;8.10;6.87;;;22.90;52.80;;;;;;4978509;28;20497;-78
2023/03/03 01:25:44;;;;;;;7.23;6.67;;;22.90;52.80;;;;;;4966360;28;20925;-78
2023/03/03 01:28:12;;;;;;;7.80;7.00;;;22.90;52.80;;;;;;4981888;28;20496;-78
2023/03/03 01:30:40;;;;;;;6.80;6.20;;;22.80;52.80;;;;;;4995005;28;20520;-78
2023/03/03 01:33:08;;;;;;;7.77;7.17;;;22.80;52.80;;;;;;4966615;28;20466;-78
2023/03/03 01:35:39;;;;;;;8.33;7.53;;;22.80;52.70;;;;;;4982024;28;20480;-78
2023/03/03 01:38:07;;;;;;;7.13;6.53;;;22.80;52.50;;;;;;4990610;28;20518;-78
2023/03/03 01:40:37;;;;;;;7.77;6.97;;;22.80;52.60;;;;;;4994579;28;20461;-78
2023/03/03 01:43:06;;;;;;;7.37;6.77;;;22.80;52.60;;;;;;4994118;28;20467;-78
2023/03/03 01:46:04;;;;;;;7.40;6.73;;;22.80;52.60;;;;;;4973911;28;20455;-78
2023/03/03 01:48:36;;;;;;;9.20;6.80;;;22.80;52.50;;;;;;4977550;28;20488;-78
2023/03/03 01:51:11;;;;;;;7.93;7.17;;;22.80;52.40;;;;;;4987454;28;20459;-78
2023/03/03 01:53:44;;;;;;;7.10;6.40;;;22.80;52.30;;;;;;4981430;28;20464;-78
2023/03/03 01:56:14;;;;;;;8.60;7.73;;;22.70;52.40;;;;;;4991857;28;20457;-78
2023/03/03 01:58:45;;;;;;;7.73;7.07;;;22.70;52.40;;;;;;4992015;28;20477;-78
2023/03/03 02:01:19;;;;;;;7.40;6.80;;;22.70;52.40;;;;;;4973729;28;20465;-78
2023/03/03 02:03:48;;;;;;;7.47;6.77;;;22.70;52.40;;;;;;4978393;28;20452;-78
2023/03/03 02:06:20;;;;;;;9.10;7.07;;;22.70;52.50;;;;;;4975563;28;20926;-78
2023/03/03 02:08:54;;;;;;;8.80;7.43;;;22.70;52.50;;;;;;4973913;28;20548;-78
2023/03/03 02:11:26;;;;;;;8.17;7.37;;;22.70;52.40;;;;;;4976133;28;20472;-78
2023/03/03 02:13:54;;;;;;;9.30;8.50;;;22.70;52.30;;;;;;4991018;28;20465;-78
2023/03/03 02:16:23;;;;;;;9.10;7.63;;;22.70;52.20;;;;;;4991347;28;20544;-78
2023/03/03 02:18:51;;;;;;;7.47;6.80;;;22.70;52.20;;;;;;4974381;28;20473;-78
2023/03/03 02:21:22;;;;;;;7.63;7.03;;;22.70;52.20;;;;;;4992813;28;20465;-78
2023/03/03 02:23:55;;;;;;;7.83;7.20;;;22.70;52.20;;;;;;4992239;28;20833;-78
2023/03/03 02:26:27;;;;;;;8.37;7.67;;;22.70;52.10;;;;;;4997490;28;20496;-78
2023/03/03 02:29:00;;;;;;;8.40;7.70;;;22.70;52.10;;;;;;4976081;28;20505;-78
2023/03/03 02:31:31;;;;;;;8.27;7.47;;;22.80;52.10;;;;;;4975421;28;20476;-78
2023/03/03 02:34:01;;;;;;;7.87;7.20;;;22.80;52.10;;;;;;4974896;28;20876;-78
2023/03/03 02:36:31;;;;;;;7.50;6.90;;;22.80;52.00;;;;;;4970489;28;20454;-78
2023/03/03 02:39:05;;;;;;;8.47;7.77;;;22.80;52.00;;;;;;4993724;28;20516;-78
2023/03/03 02:41:39;;;;;;;8.60;7.70;;;22.80;51.90;;;;;;4969677;28;20561;-78
2023/03/03 02:44:10;;;;;;;8.40;7.67;;;22.80;51.90;;;;;;4957175;28;20972;-78
2023/03/03 02:46:41;;;;;;;7.87;7.27;;;22.80;51.90;;;;;;4987861;28;20865;-78
2023/03/03 02:49:11;;;;;;;7.27;6.67;;;22.80;51.90;;;;;;4993172;28;20544;-78
2023/03/03 02:51:40;;;;;;;8.00;7.23;;;22.80;51.80;;;;;;4991440;28;20464;-78
2023/03/03 02:54:10;;;;;;;8.00;7.30;;;22.80;51.80;;;;;;4975931;28;20489;-78
2023/03/03 02:56:40;;;;;;;7.77;7.10;;;22.80;51.80;;;;;;4992469;28;20998;-78
2023/03/03 02:59:09;;;;;;;7.13;6.50;;;22.70;51.80;;;;;;4973020;28;21063;-78
2023/03/03 03:01:42;;;;;;;7.20;6.50;;;22.70;51.80;;;;;;4971236;28;21336;-78
2023/03/03 03:04:16;;;;;;;8.43;7.53;;;22.70;51.80;;;;;;4972338;28;20470;-78
2023/03/03 03:06:47;;;;;;;7.80;7.10;;;22.70;51.80;;;;;;4970965;28;20468;-78
2023/03/03 03:09:18;;;;;;;8.33;7.40;;;22.70;51.80;;;;;;4971052;28;20466;-78
2023/03/03 03:11:49;;;;;;;8.17;7.47;;;22.70;51.80;;;;;;4965321;28;20466;-78
2023/03/03 03:14:22;;;;;;;7.50;6.80;;;22.70;51.80;;;;;;4972813;28;21271;-78
2023/03/03 03:16:51;;;;;;;9.33;8.30;;;22.70;51.90;;;;;;4970664;28;20483;-78
2023/03/03 03:19:19;;;;;;;7.67;7.00;;;22.70;51.80;;;;;;4975773;28;20495;-78
2023/03/03 03:21:48;;;;;;;7.57;6.80;;;22.70;51.80;;;;;;4971780;28;20498;-78
2023/03/03 03:24:17;;;;;;;8.30;7.53;;;22.70;51.80;;;;;;4956254;28;20456;-78
2023/03/03 03:26:53;;;;;;;7.93;6.80;;;22.70;51.70;;;;;;4962663;28;20508;-78
2023/03/03 03:29:23;;;;;;;8.43;7.73;;;22.70;51.60;;;;;;4971291;28;20493;-78
2023/03/03 03:31:51;;;;;;;7.90;7.20;;;22.60;51.70;;;;;;4973722;28;20536;-78
2023/03/03 03:34:19;;;;;;;8.30;7.50;;;22.60;51.70;;;;;;4992461;28;20460;-78
2023/03/03 03:36:48;;;;;;;7.00;6.40;;;22.60;51.70;;;;;;4960576;28;21041;-78
2023/03/03 03:39:17;;;;;;;8.43;7.73;;;22.60;51.70;;;;;;4987674;28;20496;-78
2023/03/03 03:41:47;;;;;;;10.07;9.17;;;22.60;51.60;;;;;;4969004;28;20466;-78
2023/03/03 03:44:17;;;;;;;8.47;7.60;;;22.60;51.60;;;;;;4956837;28;20473;-78
2023/03/03 03:46:45;;;;;;;8.80;8.00;;;22.60;51.50;;;;;;4991310;28;20491;-78
2023/03/03 03:49:13;;;;;;;8.00;7.33;;;22.60;51.50;;;;;;4987717;28;20542;-78
2023/03/03 03:51:42;;;;;;;7.17;6.57;;;22.60;51.40;;;;;;4971192;28;20554;-78
2023/03/03 03:54:14;;;;;;;8.20;7.50;;;22.60;51.40;;;;;;4955570;28;20964;-78
2023/03/03 03:56:43;;;;;;;8.70;7.90;;;22.70;51.50;;;;;;4969795;28;20470;-78
2023/03/03 03:59:11;;;;;;;8.53;7.70;;;22.70;51.50;;;;;;4973991;28;20462;-78
2023/03/03 04:01:41;;;;;;;8.60;7.80;;;22.70;51.40;;;;;;4972902;28;20485;-78
2023/03/03 04:04:09;;;;;;;8.57;7.77;;;22.70;51.40;;;;;;4992218;28;20437;-78
2023/03/03 04:06:37;;;;;;;7.87;7.07;;;22.70;51.30;;;;;;4963135;28;20526;-78
2023/03/03 04:09:06;;;;;;;8.00;7.23;;;22.70;51.30;;;;;;4969234;28;20457;-78
2023/03/03 04:11:35;;;;;;;8.10;7.07;;;22.70;51.20;;;;;;4989401;28;20461;-78
2023/03/03 04:14:05;;;;;;;9.57;7.50;;;22.70;51.20;;;;;;4969531;28;21409;-78
2023/03/03 04:16:35;;;;;;;7.80;7.00;;;22.70;51.20;;;;;;4963325;28;20474;-78
2023/03/03 04:19:04;;;;;;;8.00;7.30;;;22.70;51.20;;;;;;4972525;28;20465;-78
2023/03/03 04:21:34;;;;;;;8.70;8.00;;;22.70;51.20;;;;;;4972938;28;21134;-78
2023/03/03 04:24:03;;;;;;;7.20;6.60;;;22.70;51.20;;;;;;4990852;28;20472;-79
2023/03/03 04:26:32;;;;;;;7.93;7.17;;;22.70;51.20;;;;;;4971995;28;20461;-78
2023/03/03 04:29:02;;;;;;;7.83;7.13;;;22.70;51.20;;;;;;4968812;28;21002;-78
2023/03/03 04:31:31;;;;;;;7.80;7.10;;;22.70;51.20;;;;;;4987814;28;20489;-78
2023/03/03 04:34:00;;;;;;;8.47;7.70;;;22.70;51.20;;;;;;4988649;28;20818;-78
2023/03/03 04:36:31;;;;;;;8.57;7.67;;;22.70;51.20;;;;;;4985691;28;20472;-78
2023/03/03 04:38:59;;;;;;;8.30;7.60;;;22.70;51.20;;;;;;4971858;28;20459;-78
2023/03/03 04:41:27;;;;;;;7.87;7.17;;;22.70;51.10;;;;;;4972383;28;21012;-78
2023/03/03 04:43:56;;;;;;;8.10;7.40;;;22.60;51.20;;;;;;4969387;28;20829;-78
2023/03/03 04:46:24;;;;;;;8.40;7.77;;;22.60;51.20;;;;;;4972291;28;20490;-78
2023/03/03 04:48:52;;;;;;;7.87;7.17;;;22.60;51.30;;;;;;4974089;28;20469;-78
2023/03/03 04:51:21;;;;;;;8.80;8.00;;;22.60;51.30;;;;;;4981540;28;20473;-77
2023/03/03 04:53:50;;;;;;;8.23;7.40;;;22.60;51.30;;;;;;4989749;28;20518;-78
2023/03/03 04:56:19;;;;;;;8.03;7.23;;;22.60;51.20;;;;;;4964714;28;20462;-78
2023/03/03 04:58:49;;;;;;;8.50;7.80;;;22.60;51.30;;;;;;4984619;28;20470;-78
2023/03/03 05:01:18;;;;;;;8.33;7.40;;;22.60;51.40;;;;;;4979839;28;20473;-78
2023/03/03 05:03:47;;;;;;;8.20;7.50;;;22.60;51.40;;;;;;4972951;28;20472;-78
2023/03/03 05:06:17;;;;;;;7.40;6.60;;;22.60;51.50;;;;;;4968670;28;20918;-78
2023/03/03 05:08:46;;;;;;;8.00;7.20;;;22.60;51.60;;;;;;4987499;28;20472;-78
2023/03/03 05:11:15;;;;;;;8.03;7.33;;;22.60;51.70;;;;;;4976074;28;20453;-79
2023/03/03 05:13:43;;;;;;;7.37;6.77;;;22.50;51.80;;;;;;4970973;28;20909;-79
2023/03/03 05:16:12;;;;;;;7.20;6.60;;;22.60;51.90;;;;;;4979311;28;20953;-78
2023/03/03 05:18:40;;;;;;;9.03;6.83;;;22.60;51.90;;;;;;4983724;28;20464;-78
2023/03/03 05:21:08;;;;;;;8.50;7.70;;;22.60;52.00;;;;;;4990255;28;20884;-78
2023/03/03 05:23:36;;;;;;;7.53;6.83;;;22.60;52.00;;;;;;4987875;28;20537;-78
2023/03/03 05:26:05;;;;;;;8.57;7.67;;;22.60;52.00;;;;;;4984630;28;20491;-77
2023/03/03 05:28:35;;;;;;;8.23;6.77;;;22.60;52.00;;;;;;4981074;28;20586;-78
2023/03/03 05:31:04;;;;;;;7.30;6.70;;;22.60;52.10;;;;;;4987354;28;20469;-78
2023/03/03 05:33:32;;;;;;;7.07;6.50;;;22.60;52.10;;;;;;4985476;28;20464;-78
2023/03/03 05:36:00;;;;;;;8.30;7.47;;;22.60;51.90;;;;;;4983202;28;20459;-78
2023/03/03 05:38:28;;;;;;;9.10;7.60;;;22.60;51.90;;;;;;4989642;28;20983;-78
2023/03/03 05:40:56;;;;;;;11.27;7.30;;;22.60;51.90;;;;;;4990536;28;20567;-78
2023/03/03 05:43:24;;;;;;;7.77;7.07;;;22.70;51.90;;;;;;4989550;28;21807;-78
2023/03/03 05:45:57;;;;;;;7.43;6.77;;;22.70;51.90;;;;;;4983234;28;20967;-78
2023/03/03 05:48:25;;;;;;;10.30;7.57;;;22.70;52.00;;;;;;4978866;28;20459;-78
2023/03/03 05:50:53;;;;;;;7.77;7.07;;;22.70;52.00;;;;;;4986307;28;20464;-78
2023/03/03 05:53:21;;;;;;;7.80;7.10;;;22.70;52.00;;;;;;4989701;28;20536;-78
2023/03/03 05:55:49;;;;;;;7.90;6.40;;;22.70;52.00;;;;;;4992680;28;20547;-78
2023/03/03 05:58:17;;;;;;;7.10;6.40;;;22.70;52.20;;;;;;4979173;28;20461;-78
2023/03/03 06:00:45;;;;;;;7.73;7.03;;;22.70;52.30;;;;;;4978744;28;20590;-78
2023/03/03 06:03:15;;;;;;;7.33;6.63;;;22.70;52.30;;;;;;4977770;28;20555;-78
2023/03/03 06:05:44;;;;;;;8.53;7.13;;;22.70;52.40;;;;;;4966196;28;20493;-77
2023/03/03 06:08:12;;;;;;;8.03;7.27;;;22.70;52.40;;;;;;4981099;28;20548;-78
2023/03/03 06:10:40;;;;;;;7.67;6.10;;;22.60;52.50;;;;;;4979503;28;20462;-78
2023/03/03 06:13:10;;;;;;;7.30;6.60;;;22.60;52.50;;;;;;4972107;28;20464;-79
2023/03/03 06:15:39;;;;;;;7.83;7.03;;;22.60;52.60;;;;;;4979828;28;20489;-79
2023/03/03 06:18:07;;;;;;;9.20;6.90;;;22.60;52.80;;;;;;4978867;28;20543;-79
2023/03/03 06:20:37;;;;;;;7.27;6.57;;;22.60;52.70;;;;;;4986783;28;20480;-79
2023/03/03 06:23:05;;;;;;;7.70;6.90;;;22.60;52.70;;;;;;4984170;28;20465;-79
2023/03/03 06:25:34;;;;;;;7.13;6.43;;;22.60;52.70;;;;;;4989674;28;20457;-78
2023/03/03 06:28:03;;;;;;;7.37;6.63;;;22.60;52.80;;;;;;4991410;28;20527;-79
2023/03/03 06:30:31;;;;;;;7.50;6.70;;;22.60;52.70;;;;;;4979722;28;20476;-78
2023/03/03 06:32:59;;;;;;;6.57;6.00;;;22.60;52.80;;;;;;4974052;28;20458;-79
2023/03/03 06:35:28;;;;;;;6.83;6.13;;;22.60;52.90;;;;;;4980621;28;20472;-78
2023/03/03 06:37:57;;;;;;;8.10;7.40;;;22.60;52.80;;;;;;4983661;28;20527;-78
2023/03/03 06:40:25;;;;;;;8.43;6.53;;;22.60;52.90;;;;;;4993800;28;20801;-79
2023/03/03 06:42:54;;;;;;;8.47;6.00;;;22.60;52.90;;;;;;4984964;28;20832;-79
2023/03/03 06:45:22;;;;;;;6.50;5.90;;;22.50;52.90;;;;;;4984173;28;20461;-78
2023/03/03 06:47:50;;;;;;;7.80;6.10;;;22.50;53.00;;;;;;4990916;28;20547;-78
2023/03/03 06:50:20;;;;;;;6.93;6.23;;;22.50;53.00;;;;;;4980340;28;21012;-78
2023/03/03 06:52:48;;;;;;;9.20;7.33;;;22.60;53.10;;;;;;4987037;28;20983;-78
2023/03/03 06:55:23;;;;;;;7.30;6.60;;;22.50;53.20;;;;;;4993207;28;20479;-78
2023/03/03 06:57:54;;;;;;;7.17;6.47;;;22.60;53.30;;;;;;4978534;28;21193;-78
2023/03/03 07:00:25;;;;;;;9.60;7.30;;;22.60;53.30;;;;;;4991694;28;20552;-78
2023/03/03 07:03:00;;;;;;;8.37;6.40;;;22.60;53.40;;;;;;4985611;28;20476;-78
2023/03/03 07:05:29;;;;;;;9.10;7.10;;;22.60;53.40;;;;;;4973610;28;20849;-78
2023/03/03 07:07:58;;;;;;;11.20;6.23;;;22.60;53.50;;;;;;4988716;28;20519;-78
2023/03/03 07:10:29;;;;;;;8.03;6.87;;;22.70;54.00;;;;;;4981441;28;20553;-78
2023/03/03 07:13:15;;;;;;;10.90;6.97;;;22.70;54.40;;;;;;4954089;28;20898;-78
2023/03/03 07:15:43;;;;;;;10.90;7.03;;;22.70;54.70;;;;;;4972784;28;20536;-78
2023/03/03 07:18:25;;;;;;;8.03;7.23;;;22.70;54.60;;;;;;4981935;28;21003;-77
2023/03/03 07:20:53;;;;;;;10.00;7.10;;;22.70;54.50;;;;;;4977057;28;22216;-76
2023/03/03 07:23:25;;;;;;;8.43;6.60;;;22.70;54.40;;;;;;4973697;28;20577;-76
2023/03/03 07:25:54;;;;;;;8.07;7.27;;;22.70;54.70;;;;;;4992038;28;20536;-76
2023/03/03 07:28:24;;;;;;;13.30;7.43;;;22.70;54.80;;;;;;4985486;28;20995;-76
2023/03/03 07:30:54;;;;;;;11.67;7.10;;;22.70;55.00;;;;;;4984618;28;20462;-76
2023/03/03 07:33:26;;;;;;;11.60;7.63;;;22.70;55.00;;;;;;4976675;28;20458;-76
2023/03/03 07:35:56;;;;;;;10.87;7.10;;;22.70;55.00;;;;;;4985979;28;20455;-75
2023/03/03 07:38:30;;;;;;;9.70;6.20;;;22.70;55.00;;;;;;4988623;28;20452;-76
2023/03/03 07:41:02;;;;;;;9.80;6.63;;;22.70;55.10;;;;;;4988092;28;20515;-76
2023/03/03 07:43:36;;;;;;;23.27;7.07;;;22.70;55.10;;;;;;4985250;28;20535;-76
2023/03/03 07:46:26;;;;;;;9.40;6.50;;;22.70;55.00;;;;;;4971158;28;20476;-76
2023/03/03 07:48:55;;;;;;;9.13;7.37;;;22.80;55.00;;;;;;4981637;28;20471;-76
2023/03/03 07:51:26;;;;;;;8.07;6.27;;;22.80;54.90;;;;;;4989370;28;20816;-76
2023/03/03 07:54:12;;;;;;;10.03;7.13;;;22.80;54.80;;;;;;4984567;28;20488;-77
2023/03/03 07:56:41;;;;;;;10.83;7.07;;;22.80;54.90;;;;;;4983145;28;20477;-78
2023/03/03 07:59:21;;;;;;;7.97;7.10;;;22.90;54.80;;;;;;4986933;28;20469;-77
2023/03/03 08:01:54;;;;;;;7.53;6.80;;;22.80;54.80;;;;;;4986143;28;20454;-78
2023/03/03 08:04:28;;;;;;;7.23;5.97;;;22.90;54.70;;;;;;4985767;28;20957;-79
2023/03/03 08:06:57;;;;;;;12.60;6.87;;;22.90;54.60;;;;;;4976041;28;20454;-78
2023/03/03 08:09:38;;;;;;;7.90;6.67;;;22.90;54.60;;;;;;4981782;28;20458;-78
2023/03/03 08:12:40;;;;;;;9.70;6.40;;;22.90;54.60;;;;;;4981167;28;21063;-78
2023/03/03 08:15:24;;;;;;;8.73;7.83;;;22.90;54.60;;;;;;4978370;28;20964;-76
2023/03/03 08:17:53;;;;;;;7.30;6.43;;;22.90;54.60;;;;;;4986292;28;20557;-77
2023/03/03 08:20:45;;;;;;;6.73;6.00;;;22.90;54.50;;;;;;4985603;28;20461;-77
2023/03/03 08:23:14;;;;;;;7.07;6.47;;;22.90;54.50;;;;;;4978465;28;20507;-77
2023/03/03 08:25:43;;;;;;;6.93;6.23;;;22.90;54.40;;;;;;4985057;28;20585;-77
2023/03/03 08:28:13;;;;;;;7.70;5.90;;;23.00;54.30;;;;;;4986652;28;20624;-80
2023/03/03 08:30:43;;;;;;;8.60;6.43;;;23.00;54.20;;;;;;4988650;28;20511;-79
2023/03/03 08:33:11;;;;;;;8.80;6.70;;;23.00;54.00;;;;;;4989878;28;20473;-79
2023/03/03 08:35:40;;;;;;;9.10;6.53;;;23.00;53.80;;;;;;4988959;28;20460;-79
2023/03/03 08:38:08;;;;;;;8.20;7.03;;;23.00;53.70;;;;;;4988032;28;20462;-79
2023/03/03 08:40:37;;;;;;;7.93;6.93;;;23.00;53.60;;;;;;4986596;28;20473;-80
2023/03/03 08:43:06;;;;;;;8.10;6.10;;;23.00;53.60;;;;;;4985869;28;20573;-79
2023/03/03 08:45:35;;;;;;;9.73;6.93;;;23.00;53.50;;;;;;4988784;28;20524;-79
2023/03/03 08:48:04;;;;;;;7.00;6.33;;;23.00;53.40;;;;;;4986326;28;20464;-79
2023/03/03 08:50:33;;;;;;;6.53;5.80;;;23.00;53.40;;;;;;4989846;28;20529;-80
2023/03/03 08:53:02;;;;;;;6.93;6.23;;;23.00;53.30;;;;;;4972599;28;20586;-79
2023/03/03 08:55:30;;;;;;;6.67;5.93;;;23.00;53.30;;;;;;4981959;28;20750;-79
2023/03/03 08:57:59;;;;;;;7.20;6.50;;;23.00;53.30;;;;;;4984862;28;20453;-79
2023/03/03 09:00:28;;;;;;;7.20;6.50;;;22.90;53.20;;;;;;4986776;28;20457;-79
2023/03/03 09:02:57;;;;;;;7.23;6.23;;;22.90;53.20;;;;;;4980073;28;20506;-79
2023/03/03 09:05:26;;;;;;;7.13;6.43;;;22.90;53.20;;;;;;4977885;28;20928;-79
2023/03/03 09:07:55;;;;;;;6.20;5.60;;;22.90;53.20;;;;;;4990792;28;21305;-79
2023/03/03 09:10:27;;;;;;;7.07;6.37;;;22.90;53.10;;;;;;4990697;28;20453;-80
2023/03/03 09:12:57;;;;;;;6.50;5.90;;;22.90;53.10;;;;;;4989550;28;20908;-79
2023/03/03 09:15:27;;;;;;;6.87;6.17;;;22.90;53.00;;;;;;4987933;28;20549;-79
2023/03/03 09:18:00;;;;;;;7.03;6.10;;;22.90;53.00;;;;;;4990351;28;20462;-79
2023/03/03 09:20:34;;;;;;;6.50;5.73;;;22.90;53.00;;;;;;4986890;28;20507;-79
2023/03/03 09:23:33;;;;;;;8.73;6.90;;;22.90;53.00;;;;;;4988956;28;20879;-79
2023/03/03 09:26:26;;;;;;;7.43;6.57;;;22.90;53.00;;;;;;4994528;28;20445;-79
2023/03/03 09:28:58;;;;;;;6.90;5.57;;;22.90;52.90;;;;;;4993594;28;20817;-79
2023/03/03 09:31:40;;;;;;;6.00;5.50;;;22.90;52.90;;;;;;4972129;28;20548;-79
2023/03/03 09:34:20;;;;;;;6.80;6.20;;;22.90;52.90;;;;;;4989040;28;20530;-79
2023/03/03 09:36:49;;;;;;;8.10;6.77;;;22.90;52.90;;;;;;4993687;28;20536;-79
2023/03/03 09:39:20;;;;;;;7.67;6.50;;;22.80;52.90;;;;;;4990398;28;20492;-79
2023/03/03 09:42:29;;;;;;;7.20;6.60;;;22.80;52.80;;;;;;4977291;28;20466;-79
2023/03/03 09:45:41;;;;;;;6.63;6.03;;;22.80;52.80;;;;;;4940874;28;21016;-79
2023/03/03 09:48:29;;;;;;;7.17;6.50;;;22.80;52.80;;;;;;4993211;28;20465;-79
2023/03/03 09:51:12;;;;;;;7.03;6.13;;;22.80;52.80;;;;;;4991366;28;20465;-79
2023/03/03 09:54:04;;;;;;;7.43;6.73;;;22.80;52.80;;;;;;4977478;28;20468;-79
2023/03/03 09:56:35;;;;;;;7.70;6.70;;;22.80;52.80;;;;;;4993628;28;20452;-79
2023/03/03 09:59:26;;;;;;;7.57;6.87;;;22.80;52.80;;;;;;4988507;28;20468;-79
2023/03/03 10:02:12;;;;;;;7.30;6.60;;;22.80;52.80;;;;;;4993554;28;20814;-79
2023/03/03 10:05:04;;;;;;;7.10;6.40;;;22.80;52.80;;;;;;4988598;28;20470;-79
2023/03/03 10:07:45;;;;;;;6.07;5.57;;;22.80;52.80;;;;;;4978514;28;20552;-79
2023/03/03 10:10:29;;;;;;;8.13;7.33;;;22.80;52.80;;;;;;4988145;28;20531;-79
2023/03/03 10:13:11;;;;;;;7.67;6.17;;;22.80;52.80;;;;;;4969723;28;20820;-79
2023/03/03 10:15:47;;;;;;;7.17;6.47;;;22.80;52.80;;;;;;4988161;28;20447;-80
2023/03/03 10:18:28;;;;;;;6.53;5.93;;;22.90;52.80;;;;;;4977489;28;20488;-79
2023/03/03 10:21:09;;;;;;;7.10;6.40;;;22.90;52.70;;;;;;4974728;28;20557;-79
2023/03/03 10:23:59;;;;;;;6.73;5.57;;;22.90;52.60;;;;;;4975640;28;20974;-78
2023/03/03 10:26:50;;;;;;;7.27;6.67;;;22.90;52.60;;;;;;4974867;28;20614;-79
2023/03/03 10:29:41;;;;;;;6.77;6.20;;;23.00;52.50;;;;;;4974002;28;20529;-79
2023/03/03 10:32:28;;;;;;;6.70;6.10;;;23.00;52.50;;;;;;4977104;28;20457;-79
2023/03/03 10:35:24;;;;;;;6.63;5.93;;;23.00;52.40;;;;;;4985282;28;20521;-80
2023/03/03 10:38:06;;;;;;;7.00;6.50;;;23.00;52.40;;;;;;4986953;28;20457;-80
2023/03/03 10:40:43;;;;;;;6.93;6.33;;;23.00;52.40;;;;;;4992524;28;20444;-80
2023/03/03 10:43:31;;;;;;;6.97;6.27;;;23.00;52.40;;;;;;4990984;28;20442;-80
2023/03/03 10:46:11;;;;;;;7.20;6.60;;;23.00;52.40;;;;;;4983774;28;20473;-80
2023/03/03 10:49:09;;;;;;;6.60;6.00;;;23.00;52.40;;;;;;4991866;28;20445;-80
2023/03/03 10:51:49;;;;;;;7.07;6.50;;;22.90;52.40;;;;;;4991243;28;20430;-79
2023/03/03 10:54:33;;;;;;;6.73;6.13;;;22.90;52.40;;;;;;4991919;28;20477;-80
2023/03/03 10:57:12;;;;;;;7.40;6.50;;;22.90;52.40;;;;;;4974905;28;20807;-80
2023/03/03 10:59:53;;;;;;;6.73;6.23;;;22.90;52.30;;;;;;4985089;28;20449;-80
2023/03/03 11:02:27;;;;;;;5.90;5.40;;;22.90;52.30;;;;;;4982333;28;21027;-80
2023/03/03 11:05:09;;;;;;;7.00;6.40;;;22.90;52.30;;;;;;4989794;28;20480;-80
2023/03/03 11:07:42;;;;;;;7.87;7.17;;;22.90;52.30;;;;;;4978660;28;20454;-80
2023/03/03 11:10:33;;;;;;;8.00;7.30;;;22.90;52.30;;;;;;4992510;28;20936;-80
2023/03/03 11:13:14;;;;;;;7.83;6.80;;;22.90;52.30;;;;;;4991381;28;20456;-80
2023/03/03 11:15:51;;;;;;;7.60;6.90;;;22.90;52.20;;;;;;4991269;28;20924;-80
2023/03/03 11:18:30;;;;;;;7.30;6.70;;;23.00;52.20;;;;;;4991407;28;20508;-81
2023/03/03 11:21:12;;;;;;;7.97;7.17;;;23.00;52.20;;;;;;4989433;28;20453;-80
2023/03/03 11:24:00;;;;;;;6.70;6.00;;;23.00;52.10;;;;;;4992135;28;20539;-81
2023/03/03 11:26:46;;;;;;;7.17;6.50;;;23.00;52.10;;;;;;4987190;28;20496;-81
2023/03/03 11:29:35;;;;;;;7.70;6.97;;;23.00;52.10;;;;;;4986343;28;20464;-80
2023/03/03 11:32:19;;;;;;;7.80;7.10;;;23.10;52.00;;;;;;4987811;28;20470;-81
2023/03/03 11:34:55;;;;;;;6.17;5.67;;;23.10;52.00;;;;;;4985454;28;20823;-81
2023/03/03 11:37:29;;;;;;;8.03;7.30;;;23.10;52.00;;;;;;4985869;28;20465;-81
2023/03/03 11:40:09;;;;;;;7.33;6.63;;;23.10;52.00;;;;;;4991989;28;21032;-81
2023/03/03 11:42:50;;;;;;;7.57;6.90;;;23.10;52.00;;;;;;4990025;28;20450;-81
2023/03/03 11:45:24;;;;;;;7.53;6.83;;;23.10;52.00;;;;;;4976739;28;20969;-80
2023/03/03 11:47:59;;;;;;;9.53;7.20;;;23.20;52.00;;;;;;4978377;28;20494;-79
2023/03/03 11:50:35;;;;;;;7.10;6.40;;;23.20;51.90;;;;;;4985980;28;20451;-79
2023/03/03 11:53:17;;;;;;;8.03;7.37;;;23.20;51.90;;;;;;4972253;28;20545;-79
2023/03/03 11:55:52;;;;;;;6.70;6.10;;;23.30;51.90;;;;;;4975758;28;20484;-79
2023/03/03 11:58:25;;;;;;;7.10;6.60;;;23.30;51.80;;;;;;4976057;28;20979;-79
2023/03/03 12:00:59;;;;;;;7.20;6.57;;;23.30;51.80;;;;;;4975254;28;20491;-79
2023/03/03 12:03:35;;;;;;;8.43;7.63;;;23.30;51.70;;;;;;4961231;28;21247;-78
2023/03/03 12:06:13;;;;;;;8.57;7.77;;;23.30;51.70;;;;;;4977487;28;20463;-74
2023/03/03 12:09:13;;;;;;;8.87;7.73;;;23.30;51.80;;;;;;4967937;28;20498;-74
2023/03/03 12:11:48;;;;;;;6.87;6.27;;;23.30;52.10;;;;;;4983898;28;21014;-74
2023/03/03 12:14:34;;;;;;;7.63;6.93;;;23.30;52.20;;;;;;4981386;28;20462;-75
2023/03/03 12:17:06;;;;;;;7.00;6.30;;;23.30;52.20;;;;;;4988098;28;20896;-80
2023/03/03 12:19:46;;;;;;;9.03;6.73;;;23.30;52.30;;;;;;4983151;28;20494;-78
2023/03/03 12:22:28;;;;;;;9.23;7.07;;;23.30;52.30;;;;;;4979486;28;20459;-76
2023/03/03 12:25:13;;;;;;;6.70;6.03;;;23.30;52.40;;;;;;4976963;28;20478;-75
2023/03/03 12:27:48;;;;;;;8.00;6.70;;;23.40;52.50;;;;;;4980314;28;20541;-77
2023/03/03 12:30:27;;;;;;;7.87;7.17;;;23.40;52.60;;;;;;4982554;28;20458;-78
2023/03/03 12:33:21;;;;;;;8.37;6.90;;;23.50;52.70;;;;;;4982012;28;20553;-78
2023/03/03 12:36:01;;;;;;;7.90;7.13;;;23.60;52.60;;;;;;4982321;28;20585;-78
2023/03/03 12:38:40;;;;;;;7.47;6.77;;;23.70;52.50;;;;;;4984218;28;20463;-75
2023/03/03 12:41:19;;;;;;;7.00;6.40;;;23.80;52.40;;;;;;4984736;28;20552;-77
2023/03/03 12:43:59;;;;;;;7.73;7.10;;;23.90;52.40;;;;;;4976841;28;20462;-78
2023/03/03 12:46:44;;;;;;;7.10;6.40;;;24.10;52.20;;;;;;4977577;28;20469;-78
2023/03/03 12:49:14;;;;;;;7.87;7.17;;;24.20;52.00;;;;;;4983208;28;20466;-77
2023/03/03 12:52:07;;;;;;;6.67;6.10;;;24.40;51.80;;;;;;4979432;28;20502;-77
2023/03/03 12:54:55;;;;;;;6.87;6.37;;;24.50;51.70;;;;;;4985572;28;20826;-78
2023/03/03 12:57:32;;;;;;;10.80;7.53;;;24.50;51.50;;;;;;4980114;28;20975;-78
2023/03/03 13:00:31;;;;;;;6.93;6.27;;;24.60;51.50;;;;;;4977577;28;20814;-77
2023/03/03 13:03:07;;;;;;;7.80;6.73;;;24.60;51.50;;;;;;4989968;28;20957;-81
2023/03/03 13:05:51;;;;;;;7.33;6.73;;;24.60;51.40;;;;;;4991168;28;20490;-79
2023/03/03 13:08:46;;;;;;;7.00;6.33;;;24.70;51.40;;;;;;4988368;28;20555;-79
2023/03/03 13:11:46;;;;;;;7.70;7.10;;;24.70;51.40;;;;;;4991256;28;20460;-77
2023/03/03 13:14:24;;;;;;;7.87;6.57;;;24.70;51.40;;;;;;4967994;28;20573;-78
2023/03/03 13:17:03;;;;;;;8.20;7.40;;;24.60;51.50;;;;;;4972576;28;21671;-78
2023/03/03 13:19:37;;;;;;;7.30;6.70;;;24.60;51.50;;;;;;4987987;28;20455;-78
2023/03/03 13:22:13;;;;;;;7.93;7.23;;;24.60;51.50;;;;;;4991189;28;21047;-79